Time;durP1;ratioP1;P1;durP2;ratioP2;P2;SDS_P1;SDS_P2;PMS_P1;PMS_P2;Temp;Humidity;BMP_temperature;BMP_pressure;BME280_temperature;BME280_humidity;BME280_pressure;Samples;Min_cycle;Max_cycle;Signal;HPM_P1;HPM_P2
2023/05/20 00:01:19;;;;;;;6.33;2.60;;;13.10;99.90;;;;;;5019255;28;20493;-82
2023/05/20 00:03:46;;;;;;;4.50;2.50;;;13.00;99.90;;;;;;5019299;28;20463;-82
2023/05/20 00:06:14;;;;;;;4.30;2.10;;;13.00;99.90;;;;;;5027765;28;20422;-81
2023/05/20 00:08:41;;;;;;;3.40;1.93;;;12.90;1.00;;;;;;5019936;28;20457;-81
2023/05/20 00:11:07;;;;;;;7.20;2.33;;;12.90;1.00;;;;;;5019570;28;20480;-81
2023/05/20 00:13:35;;;;;;;4.13;2.40;;;12.90;1.00;;;;;;5017234;28;20541;-80
2023/05/20 00:16:02;;;;;;;3.73;1.90;;;12.80;1.00;;;;;;5017246;28;20488;-80
2023/05/20 00:18:29;;;;;;;5.90;2.23;;;12.80;1.00;;;;;;5016530;28;20456;-81
2023/05/20 00:20:55;;;;;;;3.13;1.67;;;12.80;1.00;;;;;;5016799;28;20484;-81
2023/05/20 00:23:24;;;;;;;3.57;2.07;;;12.80;1.00;;;;;;5017180;28;20504;-81
2023/05/20 00:25:50;;;;;;;4.97;1.93;;;12.80;99.90;;;;;;5017206;28;20452;-80
2023/05/20 00:28:18;;;;;;;3.50;2.00;;;12.80;99.90;;;;;;5021139;28;20454;-81
2023/05/20 00:30:45;;;;;;;3.33;1.93;;;12.80;99.90;;;;;;5032210;28;21041;-80
2023/05/20 00:33:14;;;;;;;4.70;1.83;;;12.80;32.70;;;;;;5032187;28;20453;-81
2023/05/20 00:35:41;;;;;;;4.47;1.97;;;12.80;99.90;;;;;;5029193;28;20543;-81
2023/05/20 00:38:07;;;;;;;3.17;1.60;;;12.80;1.00;;;;;;5019093;28;20461;-82
2023/05/20 00:40:35;;;;;;;3.87;2.03;;;12.80;99.90;;;;;;5018819;28;20444;-82
2023/05/20 00:43:02;;;;;;;2.90;1.70;;;12.80;1.00;;;;;;5018131;28;20459;-82
2023/05/20 00:45:29;;;;;;;3.53;1.77;;;12.80;99.90;;;;;;5018978;28;20445;-82
2023/05/20 00:48:00;;;;;;;4.07;1.97;;;12.80;1.00;;;;;;5018522;28;20460;-82
2023/05/20 00:50:27;;;;;;;4.67;1.70;;;12.80;1.00;;;;;;5018721;28;20458;-82
2023/05/20 00:52:55;;;;;;;3.97;2.07;;;12.80;99.90;;;;;;5017665;28;20456;-82
2023/05/20 00:55:22;;;;;;;7.60;2.10;;;12.80;1.00;;;;;;5018662;28;20493;-82
2023/05/20 00:57:51;;;;;;;4.40;1.93;;;12.70;1.00;;;;;;5018297;28;20459;-82
2023/05/20 01:00:18;;;;;;;8.47;2.47;;;12.70;89.70;;;;;;5018200;28;20452;-81
2023/05/20 01:02:45;;;;;;;5.13;2.30;;;12.70;27.70;;;;;;5018165;28;20537;-82
2023/05/20 01:05:12;;;;;;;4.77;2.20;;;12.70;99.90;;;;;;5018425;28;20445;-82
2023/05/20 01:07:39;;;;;;;5.60;2.40;;;12.60;99.90;;;;;;5018793;28;21167;-81
2023/05/20 01:10:07;;;;;;;4.33;2.00;;;12.60;99.90;;;;;;5018731;28;20450;-81
2023/05/20 01:12:38;;;;;;;4.40;2.10;;;12.60;1.00;;;;;;5017307;28;20476;-82
2023/05/20 01:15:09;;;;;;;6.50;2.10;;;12.60;1.00;;;;;;5017786;28;20487;-81
2023/05/20 01:17:39;;;;;;;4.27;2.20;;;12.50;1.00;;;;;;4998295;28;20480;-81
2023/05/20 01:20:09;;;;;;;4.20;2.27;;;12.50;99.90;;;;;;4998540;28;20447;-82
2023/05/20 01:22:38;;;;;;;2.97;1.97;;;12.50;1.00;;;;;;5016984;28;20509;-82
2023/05/20 01:25:05;;;;;;;3.13;1.63;;;12.50;1.00;;;;;;5018234;28;20453;-81
2023/05/20 01:27:32;;;;;;;4.17;1.87;;;12.50;1.00;;;;;;5018134;28;20517;-81
2023/05/20 01:29:59;;;;;;;3.70;1.97;;;12.40;99.90;;;;;;5018396;28;20457;-81
2023/05/20 01:32:31;;;;;;;5.87;2.30;;;12.40;36.30;;;;;;5017621;28;20486;-81
2023/05/20 01:34:59;;;;;;;3.50;2.27;;;12.40;99.90;;;;;;5018891;28;20489;-82
2023/05/20 01:37:27;;;;;;;4.37;2.00;;;12.40;36.30;;;;;;5019115;28;20462;-80
2023/05/20 01:39:56;;;;;;;3.40;1.90;;;12.40;27.40;;;;;;5021558;28;20466;-81
2023/05/20 01:42:25;;;;;;;4.17;1.80;;;12.40;1.00;;;;;;5017544;28;20481;-81
2023/05/20 01:44:52;;;;;;;4.47;2.10;;;12.40;1.00;;;;;;5017399;28;20447;-81
2023/05/20 01:47:18;;;;;;;4.37;2.43;;;12.40;1.00;;;;;;5018285;28;20534;-81
2023/05/20 01:49:46;;;;;;;3.80;1.87;;;12.40;99.90;;;;;;5018168;28;20462;-81
2023/05/20 01:52:13;;;;;;;3.60;1.90;;;12.50;1.00;;;;;;5017636;28;20473;-80
2023/05/20 01:54:40;;;;;;;3.00;1.53;;;12.50;1.00;;;;;;5016947;28;20463;-81
2023/05/20 01:57:08;;;;;;;5.40;2.20;;;12.50;1.00;;;;;;5018083;28;20465;-81
2023/05/20 01:59:35;;;;;;;3.60;2.07;;;12.50;99.90;;;;;;5017539;28;20852;-81
2023/05/20 02:02:01;;;;;;;6.50;2.63;;;12.50;21.90;;;;;;5017073;28;20482;-81
2023/05/20 02:04:28;;;;;;;3.43;1.63;;;12.50;1.00;;;;;;5016819;28;20455;-81
2023/05/20 02:06:55;;;;;;;3.53;1.97;;;12.50;99.90;;;;;;5017228;28;20454;-81
2023/05/20 02:09:22;;;;;;;4.20;2.37;;;12.50;28.30;;;;;;5017601;28;20459;-82
2023/05/20 02:11:48;;;;;;;3.40;2.20;;;12.40;99.90;;;;;;5017353;28;20469;-81
2023/05/20 02:14:16;;;;;;;5.23;1.97;;;12.40;1.00;;;;;;5017593;28;21119;-81
2023/05/20 02:16:43;;;;;;;5.77;2.60;;;12.40;99.90;;;;;;5017754;28;21022;-81
2023/05/20 02:19:11;;;;;;;6.20;2.17;;;12.30;1.00;;;;;;5018030;28;20462;-82
2023/05/20 02:21:39;;;;;;;3.90;2.20;;;12.30;1.00;;;;;;5016783;28;20510;-81
2023/05/20 02:24:06;;;;;;;4.60;2.10;;;12.30;26.10;;;;;;5017314;28;20516;-81
2023/05/20 02:26:33;;;;;;;2.80;1.67;;;12.30;1.00;;;;;;5017263;28;20449;-81
2023/05/20 02:29:00;;;;;;;4.70;2.50;;;12.20;1.00;;;;;;5017004;28;20453;-81
2023/05/20 02:31:28;;;;;;;4.53;2.53;;;12.20;1.00;;;;;;5016191;28;20479;-81
2023/05/20 02:33:55;;;;;;;6.17;2.60;;;12.20;1.00;;;;;;5016187;28;20507;-81
2023/05/20 02:36:22;;;;;;;4.33;2.40;;;12.10;99.90;;;;;;5016468;28;20533;-81
2023/05/20 02:38:49;;;;;;;3.90;2.33;;;12.10;99.90;;;;;;5016381;28;20585;-80
2023/05/20 02:41:15;;;;;;;6.53;1.93;;;12.10;1.00;;;;;;5016717;28;20483;-81
2023/05/20 02:43:43;;;;;;;3.13;1.60;;;12.00;1.00;;;;;;5016755;28;20543;-81
2023/05/20 02:46:10;;;;;;;4.40;2.07;;;12.00;1.00;;;;;;5016419;28;20499;-81
2023/05/20 02:48:38;;;;;;;4.10;2.30;;;12.00;99.90;;;;;;5016341;28;20536;-80
2023/05/20 02:51:06;;;;;;;4.20;2.23;;;12.00;99.90;;;;;;5015665;28;20473;-80
2023/05/20 02:53:32;;;;;;;4.40;2.07;;;12.00;99.90;;;;;;5015666;28;20461;-81
2023/05/20 02:56:00;;;;;;;3.20;1.80;;;11.90;1.00;;;;;;5016664;28;20482;-80
2023/05/20 02:58:28;;;;;;;5.00;2.30;;;11.90;99.90;;;;;;5016019;28;20953;-80
2023/05/20 03:00:56;;;;;;;5.20;2.07;;;12.00;99.90;;;;;;5016141;28;20504;-81
2023/05/20 03:03:25;;;;;;;6.63;2.00;;;12.00;1.00;;;;;;5016429;28;20507;-81
2023/05/20 03:05:54;;;;;;;5.20;2.33;;;12.00;35.90;;;;;;5016401;28;20454;-81
2023/05/20 03:08:22;;;;;;;4.70;2.30;;;12.00;99.90;;;;;;5016750;28;20462;-81
2023/05/20 03:10:49;;;;;;;3.50;1.87;;;11.90;99.90;;;;;;5016715;28;20473;-81
2023/05/20 03:13:15;;;;;;;4.30;2.40;;;11.90;1.00;;;;;;5019440;28;20452;-81
2023/05/20 03:15:44;;;;;;;7.90;2.30;;;11.90;23.90;;;;;;5020141;28;20860;-81
2023/05/20 03:18:11;;;;;;;3.50;2.17;;;11.90;3.30;;;;;;5020453;28;20461;-81
2023/05/20 03:20:38;;;;;;;5.03;2.60;;;11.90;1.00;;;;;;5020158;28;20487;-81
2023/05/20 03:23:07;;;;;;;4.73;2.30;;;11.90;93.00;;;;;;5020052;28;20487;-81
2023/05/20 03:25:34;;;;;;;3.67;2.03;;;11.90;99.90;;;;;;5020130;28;20450;-81
2023/05/20 03:28:01;;;;;;;5.47;2.40;;;11.90;99.90;;;;;;5019403;28;20460;-80
2023/05/20 03:30:28;;;;;;;3.83;2.30;;;11.80;99.90;;;;;;5019600;28;20969;-81
2023/05/20 03:32:56;;;;;;;3.67;2.30;;;11.80;1.00;;;;;;5019508;28;20488;-81
2023/05/20 03:35:23;;;;;;;4.00;2.30;;;11.80;99.90;;;;;;5019858;28;20496;-81
2023/05/20 03:37:50;;;;;;;4.57;2.13;;;11.80;1.00;;;;;;5019549;28;20449;-80
2023/05/20 03:40:19;;;;;;;5.20;2.27;;;11.80;1.00;;;;;;5020163;28;20441;-80
2023/05/20 03:42:46;;;;;;;4.23;2.47;;;11.80;90.50;;;;;;5019361;28;20528;-81
2023/05/20 03:45:13;;;;;;;3.33;1.93;;;11.80;1.00;;;;;;5025814;28;20559;-79
2023/05/20 03:47:40;;;;;;;4.50;2.13;;;11.80;1.00;;;;;;5022059;28;20453;-81
2023/05/20 03:50:07;;;;;;;3.00;1.90;;;11.80;1.00;;;;;;5018511;28;20544;-80
2023/05/20 03:52:34;;;;;;;3.10;1.90;;;11.80;99.90;;;;;;5017706;28;20488;-81
2023/05/20 03:55:01;;;;;;;4.53;2.30;;;11.80;99.90;;;;;;5017941;28;20469;-80
2023/05/20 03:57:31;;;;;;;4.03;2.00;;;11.80;1.00;;;;;;5017874;28;20488;-80
2023/05/20 03:59:57;;;;;;;4.10;2.20;;;11.90;1.00;;;;;;5018876;28;20509;-80
2023/05/20 04:02:24;;;;;;;5.23;2.50;;;11.90;99.90;;;;;;5018389;28;20567;-79
2023/05/20 04:04:52;;;;;;;4.47;2.20;;;12.00;99.90;;;;;;5018871;28;20466;-80
2023/05/20 04:07:19;;;;;;;3.60;2.23;;;12.00;99.90;;;;;;5018071;28;20475;-81
2023/05/20 04:09:46;;;;;;;4.67;2.00;;;12.00;65.40;;;;;;5018637;28;20453;-81
2023/05/20 04:12:13;;;;;;;3.90;2.20;;;12.10;1.00;;;;;;5017601;28;20480;-81
2023/05/20 04:14:41;;;;;;;5.57;2.57;;;12.10;99.90;;;;;;5017622;28;20450;-81
2023/05/20 04:17:09;;;;;;;6.50;2.80;;;12.20;1.00;;;;;;5018554;28;20605;-81
2023/05/20 04:19:37;;;;;;;4.50;2.47;;;12.20;99.90;;;;;;5017955;28;20484;-81
2023/05/20 04:22:04;;;;;;;4.23;2.47;;;12.20;99.90;;;;;;5017630;28;20484;-80
2023/05/20 04:24:31;;;;;;;4.93;2.73;;;12.30;1.00;;;;;;5017770;28;20475;-81
2023/05/20 04:26:57;;;;;;;3.93;2.30;;;12.40;1.00;;;;;;5017806;28;20533;-81
2023/05/20 04:29:25;;;;;;;3.60;1.97;;;12.40;1.00;;;;;;5018190;28;20458;-81
2023/05/20 04:31:53;;;;;;;3.40;2.03;;;12.50;49.40;;;;;;5017687;28;20481;-81
2023/05/20 04:34:25;;;;;;;7.00;2.40;;;12.60;99.90;;;;;;5017479;28;20964;-82
2023/05/20 04:36:52;;;;;;;3.80;2.27;;;12.60;1.00;;;;;;5018149;28;20488;-81
2023/05/20 04:39:21;;;;;;;4.90;2.57;;;12.70;1.00;;;;;;5018193;28;20463;-81
2023/05/20 04:41:48;;;;;;;4.43;2.20;;;12.80;99.90;;;;;;5018407;28;20481;-81
2023/05/20 04:44:15;;;;;;;3.90;2.30;;;12.80;99.90;;;;;;5017525;28;20461;-81
2023/05/20 04:46:41;;;;;;;4.57;2.13;;;12.90;99.90;;;;;;5018246;28;20824;-81
2023/05/20 04:49:09;;;;;;;4.17;2.60;;;12.90;1.00;;;;;;5017761;28;20455;-81
2023/05/20 04:51:36;;;;;;;3.57;2.30;;;13.00;99.90;;;;;;5018206;28;20485;-81
2023/05/20 04:54:03;;;;;;;3.90;2.70;;;13.00;99.90;;;;;;5017172;28;20532;-81
2023/05/20 04:56:30;;;;;;;3.60;2.40;;;13.10;1.00;;;;;;5018215;28;21021;-81
2023/05/20 04:58:57;;;;;;;3.33;2.23;;;13.10;99.90;;;;;;5018305;28;20467;-81
2023/05/20 05:01:24;;;;;;;4.23;2.60;;;13.10;1.00;;;;;;5016128;28;20493;-81
2023/05/20 05:03:51;;;;;;;4.60;2.43;;;13.10;1.00;;;;;;5016945;28;20462;-81
2023/05/20 05:06:19;;;;;;;6.40;3.17;;;13.20;99.90;;;;;;5017046;28;20445;-82
2023/05/20 05:08:46;;;;;;;4.60;2.87;;;13.20;99.90;;;;;;5017680;28;20466;-81
2023/05/20 05:11:12;;;;;;;3.73;2.53;;;13.20;1.00;;;;;;5017322;28;20564;-82
2023/05/20 05:13:39;;;;;;;4.57;2.67;;;13.20;1.00;;;;;;5016927;28;20989;-81
2023/05/20 05:16:06;;;;;;;4.57;3.20;;;13.20;99.90;;;;;;5017422;28;20868;-80
2023/05/20 05:18:33;;;;;;;4.33;2.77;;;13.20;99.90;;;;;;5017358;28;20853;-81
2023/05/20 05:21:01;;;;;;;5.57;2.93;;;13.30;99.90;;;;;;5016581;28;20481;-80
2023/05/20 05:23:30;;;;;;;3.90;2.60;;;13.30;1.00;;;;;;5017318;28;20456;-81
2023/05/20 05:25:57;;;;;;;6.03;3.00;;;13.40;1.00;;;;;;5016632;28;20954;-81
2023/05/20 05:28:24;;;;;;;4.10;2.50;;;13.40;89.70;;;;;;5017471;28;20504;-81
2023/05/20 05:30:51;;;;;;;5.00;2.77;;;13.50;99.90;;;;;;5017569;28;20478;-80
2023/05/20 05:33:18;;;;;;;3.93;2.17;;;13.50;99.90;;;;;;5016561;28;20454;-81
2023/05/20 05:35:45;;;;;;;4.67;3.03;;;13.50;28.10;;;;;;5016667;28;20517;-81
2023/05/20 05:38:11;;;;;;;4.00;2.83;;;13.50;25.70;;;;;;5016661;28;20468;-81
2023/05/20 05:40:40;;;;;;;3.80;2.43;;;13.60;99.90;;;;;;5017063;28;20471;-81
2023/05/20 05:43:06;;;;;;;4.60;2.80;;;13.60;1.00;;;;;;5016814;28;20980;-80
2023/05/20 05:45:33;;;;;;;5.17;2.77;;;13.60;99.90;;;;;;5018257;28;20456;-80
2023/05/20 05:48:00;;;;;;;5.00;2.80;;;13.60;99.90;;;;;;5016844;28;20468;-81
2023/05/20 05:50:27;;;;;;;5.50;3.17;;;13.70;99.90;;;;;;5016229;28;20455;-83
2023/05/20 05:52:54;;;;;;;5.13;2.60;;;13.80;12.70;;;;;;5015841;28;20830;-83
2023/05/20 05:55:22;;;;;;;8.60;3.00;;;13.80;1.00;;;;;;5017352;28;20461;-84
2023/05/20 05:57:51;;;;;;;3.80;2.30;;;13.90;99.90;;;;;;5016154;28;20490;-84
2023/05/20 06:00:19;;;;;;;4.33;2.83;;;13.90;1.00;;;;;;5016077;28;20462;-83
2023/05/20 06:02:47;;;;;;;3.60;2.40;;;13.90;1.00;;;;;;5016455;28;20453;-84
2023/05/20 06:05:14;;;;;;;5.90;3.30;;;14.00;1.00;;;;;;5016233;28;21029;-84
2023/05/20 06:07:41;;;;;;;5.30;3.13;;;14.10;1.00;;;;;;5016261;28;20453;-84
2023/05/20 06:10:09;;;;;;;3.80;2.27;;;14.20;1.00;;;;;;5016448;28;20457;-84
2023/05/20 06:12:36;;;;;;;8.40;3.73;;;14.30;2.70;;;;;;5015567;28;20474;-83
2023/05/20 06:15:05;;;;;;;4.80;2.80;;;14.30;1.00;;;;;;5015569;28;20463;-83
2023/05/20 06:17:32;;;;;;;5.23;2.77;;;14.40;99.90;;;;;;5016319;28;20515;-84
2023/05/20 06:19:59;;;;;;;6.50;3.17;;;14.50;99.90;;;;;;5017503;28;20449;-84
2023/05/20 06:22:26;;;;;;;5.30;3.13;;;14.50;99.90;;;;;;5016139;28;20496;-83
2023/05/20 06:24:55;;;;;;;5.47;3.97;;;14.50;1.00;;;;;;5015550;28;20467;-83
2023/05/20 06:27:22;;;;;;;5.50;3.17;;;14.50;1.00;;;;;;5016697;28;20520;-85
2023/05/20 06:29:48;;;;;;;4.73;2.80;;;14.50;1.00;;;;;;5016982;28;20464;-83
2023/05/20 06:32:17;;;;;;;5.80;2.60;;;14.50;1.00;;;;;;5018118;28;20496;-84
2023/05/20 06:34:44;;;;;;;6.20;3.70;;;14.80;99.90;;;;;;5018707;28;20972;-84
2023/05/20 06:37:11;;;;;;;4.07;2.30;;;15.10;15.70;;;;;;5019150;28;21036;-84
2023/05/20 06:39:38;;;;;;;6.70;2.70;;;15.50;99.90;;;;;;5018077;28;20457;-82
2023/05/20 06:42:05;;;;;;;4.20;2.87;;;15.80;54.00;;;;;;5018455;28;20577;-84
2023/05/20 06:44:32;;;;;;;11.17;3.30;;;16.00;1.00;;;;;;5017256;28;21037;-84
2023/05/20 06:46:58;;;;;;;4.60;3.30;;;16.30;1.00;;;;;;5019073;28;20549;-84
2023/05/20 06:49:27;;;;;;;5.87;3.67;;;16.60;99.90;;;;;;5019103;28;20468;-83
2023/05/20 06:51:54;;;;;;;6.30;3.30;;;16.80;99.90;;;;;;5018083;28;20504;-84
2023/05/20 06:54:21;;;;;;;5.67;3.00;;;17.00;99.90;;;;;;5017838;28;20455;-84
2023/05/20 06:56:48;;;;;;;4.20;2.80;;;17.20;93.30;;;;;;5017587;28;20487;-84
2023/05/20 06:59:14;;;;;;;5.47;2.97;;;17.20;96.30;;;;;;5017715;28;20492;-84
2023/05/20 07:01:41;;;;;;;4.00;2.83;;;17.30;20.10;;;;;;5017676;28;20572;-84
2023/05/20 07:04:08;;;;;;;6.97;3.23;;;17.50;1.00;;;;;;5020198;28;20457;-85
2023/05/20 07:06:36;;;;;;;5.03;3.30;;;17.60;1.00;;;;;;5019057;28;20475;-85
2023/05/20 07:09:04;;;;;;;5.40;3.43;;;17.60;1.00;;;;;;5019218;28;20538;-84
2023/05/20 07:11:30;;;;;;;4.83;3.07;;;17.40;1.00;;;;;;5019693;28;20484;-84
2023/05/20 07:13:57;;;;;;;8.30;3.30;;;17.50;1.00;;;;;;5020245;28;20460;-84
2023/05/20 07:16:24;;;;;;;4.50;3.33;;;17.50;1.00;;;;;;5035924;28;20441;-83
2023/05/20 07:18:51;;;;;;;6.53;3.17;;;17.50;1.00;;;;;;5036455;28;20436;-82
2023/05/20 07:21:18;;;;;;;6.57;3.23;;;17.50;1.00;;;;;;5011704;28;20499;-83
2023/05/20 07:23:46;;;;;;;5.10;3.43;;;17.70;1.00;;;;;;5016800;28;20454;-82
2023/05/20 07:26:13;;;;;;;9.40;3.90;;;17.70;1.00;;;;;;5017326;28;20449;-83
2023/05/20 07:28:40;;;;;;;6.33;3.20;;;17.80;1.00;;;;;;5016903;28;20451;-84
2023/05/20 07:31:07;;;;;;;5.33;3.67;;;17.90;1.00;;;;;;5016821;28;20471;-83
2023/05/20 07:33:33;;;;;;;6.53;3.43;;;18.00;1.00;;;;;;5016726;28;20548;-84
2023/05/20 07:36:00;;;;;;;6.17;3.13;;;18.20;1.00;;;;;;5016699;28;20527;-83
2023/05/20 07:38:27;;;;;;;5.40;3.50;;;18.40;1.00;;;;;;5017263;28;20488;-81
2023/05/20 07:40:55;;;;;;;5.77;3.03;;;18.40;1.00;;;;;;5017527;28;20575;-84
2023/05/20 07:43:22;;;;;;;5.30;3.40;;;18.50;1.00;;;;;;5015875;28;20538;-84
2023/05/20 07:45:49;;;;;;;7.00;3.93;;;18.60;1.00;;;;;;5016586;28;21009;-84
2023/05/20 07:48:16;;;;;;;4.67;3.30;;;18.60;1.00;;;;;;5016557;28;20463;-83
2023/05/20 07:50:43;;;;;;;5.13;3.50;;;18.70;1.00;;;;;;5016100;28;20477;-84
2023/05/20 07:53:10;;;;;;;5.43;3.80;;;18.90;1.00;;;;;;5017620;28;20463;-84
2023/05/20 07:55:36;;;;;;;6.50;3.70;;;18.90;1.00;;;;;;5016578;28;20456;-84
2023/05/20 07:58:05;;;;;;;6.00;3.53;;;19.10;1.00;;;;;;5019504;28;20576;-84
2023/05/20 08:00:32;;;;;;;6.00;3.97;;;19.10;1.00;;;;;;5030974;28;20500;-83
2023/05/20 08:02:58;;;;;;;6.70;4.07;;;19.10;1.00;;;;;;5032904;28;20521;-84
2023/05/20 08:05:25;;;;;;;5.80;3.93;;;19.10;1.00;;;;;;5035762;28;20460;-84
2023/05/20 08:07:52;;;;;;;5.20;3.13;;;19.40;1.00;;;;;;5027859;28;20509;-84
2023/05/20 08:10:19;;;;;;;5.80;3.20;;;19.60;1.00;;;;;;5023746;28;20894;-84
2023/05/20 08:12:47;;;;;;;7.10;4.07;;;19.70;1.00;;;;;;5023560;28;20457;-85
2023/05/20 08:15:15;;;;;;;5.43;3.83;;;19.80;1.00;;;;;;5022690;28;20484;-84
2023/05/20 08:17:42;;;;;;;7.27;3.70;;;19.90;1.00;;;;;;5024328;28;20587;-85
2023/05/20 08:20:09;;;;;;;6.10;4.00;;;20.00;1.00;;;;;;5022996;28;21032;-84
2023/05/20 08:22:36;;;;;;;5.10;3.37;;;20.10;1.00;;;;;;5022685;28;20473;-86
2023/05/20 08:25:03;;;;;;;5.10;3.80;;;20.30;1.00;;;;;;5022894;28;20980;-85
2023/05/20 08:27:30;;;;;;;5.20;3.90;;;20.30;1.00;;;;;;5022281;28;20457;-84
2023/05/20 08:29:57;;;;;;;7.83;4.60;;;20.50;1.00;;;;;;5022291;28;20535;-84
2023/05/20 08:32:26;;;;;;;7.50;3.30;;;20.50;1.00;;;;;;5021679;28;20501;-83
2023/05/20 08:34:53;;;;;;;5.33;3.90;;;20.60;99.90;;;;;;5022940;28;20456;-86
2023/05/20 08:37:20;;;;;;;5.50;3.90;;;20.60;99.90;;;;;;5023624;28;20517;-84
2023/05/20 08:39:48;;;;;;;6.87;4.40;;;20.50;99.90;;;;;;5022509;28;20509;-84
2023/05/20 08:42:15;;;;;;;7.20;3.70;;;20.50;99.90;;;;;;5022216;28;20485;-84
2023/05/20 08:44:45;;;;;;;5.73;4.00;;;20.50;99.90;;;;;;5021179;28;20445;-84
2023/05/20 08:47:12;;;;;;;6.47;3.70;;;20.90;99.90;;;;;;5022105;28;20525;-84
2023/05/20 08:49:41;;;;;;;5.40;4.10;;;21.10;99.90;;;;;;5022183;28;20460;-84
2023/05/20 08:52:11;;;;;;;5.20;4.13;;;21.30;99.90;;;;;;5022009;28;20482;-85
2023/05/20 08:54:44;;;;;;;10.47;5.17;;;21.30;99.90;;;;;;5021313;28;20450;-84
2023/05/20 08:57:12;;;;;;;9.03;4.33;;;21.30;99.90;;;;;;5021065;28;21037;-84
2023/05/20 08:59:42;;;;;;;8.00;4.87;;;21.60;99.90;;;;;;5022482;28;20468;-84
2023/05/20 09:02:09;;;;;;;6.40;4.57;;;21.80;99.90;;;;;;5021594;28;20488;-84
2023/05/20 09:04:36;;;;;;;6.53;4.77;;;22.00;99.90;;;;;;5021737;28;20457;-85
2023/05/20 09:07:04;;;;;;;6.17;4.67;;;22.10;99.90;;;;;;5021605;28;20445;-84
2023/05/20 09:09:33;;;;;;;7.23;5.07;;;22.20;99.90;;;;;;5021030;28;20548;-84
2023/05/20 09:12:01;;;;;;;6.80;5.20;;;22.20;99.90;;;;;;5022016;28;20537;-84
2023/05/20 09:14:28;;;;;;;5.90;4.60;;;22.10;99.90;;;;;;5021660;28;20541;-84
2023/05/20 09:16:55;;;;;;;6.80;4.63;;;21.60;99.90;;;;;;5021836;28;20561;-84
2023/05/20 09:19:23;;;;;;;7.50;5.33;;;21.30;99.90;;;;;;5021251;28;20445;-84
2023/05/20 09:21:52;;;;;;;6.30;4.53;;;21.00;99.90;;;;;;5022422;28;20477;-84
2023/05/20 09:24:23;;;;;;;6.23;5.20;;;20.80;99.90;;;;;;5022402;28;20544;-84
2023/05/20 09:26:50;;;;;;;5.90;4.80;;;20.60;99.90;;;;;;5021028;28;20444;-83
2023/05/20 09:29:18;;;;;;;6.07;4.40;;;20.50;99.90;;;;;;5020188;28;20454;-84
2023/05/20 09:31:45;;;;;;;6.60;4.63;;;20.60;99.90;;;;;;5020842;28;20568;-84
2023/05/20 09:34:12;;;;;;;7.43;4.50;;;20.80;99.90;;;;;;5020926;28;20553;-85
2023/05/20 09:36:42;;;;;;;7.97;5.50;;;20.80;99.90;;;;;;5021036;28;20519;-83
2023/05/20 09:39:13;;;;;;;7.00;5.70;;;20.80;99.90;;;;;;5020464;28;20580;-85
2023/05/20 09:41:50;;;;;;;6.70;4.77;;;21.00;99.90;;;;;;5020553;28;20465;-83
2023/05/20 09:44:18;;;;;;;7.10;4.90;;;20.80;99.90;;;;;;5000300;28;20553;-84
2023/05/20 09:46:47;;;;;;;7.27;5.03;;;20.90;99.90;;;;;;5000452;28;20537;-83
2023/05/20 09:49:15;;;;;;;7.00;5.17;;;20.70;99.90;;;;;;5002654;28;20482;-84
2023/05/20 09:51:45;;;;;;;6.57;4.50;;;20.80;99.90;;;;;;5002384;28;20498;-84
2023/05/20 09:54:13;;;;;;;6.80;5.10;;;20.80;99.90;;;;;;5024844;28;20445;-84
2023/05/20 09:56:42;;;;;;;9.67;5.07;;;20.80;99.90;;;;;;5020215;28;20460;-84
2023/05/20 09:59:11;;;;;;;6.63;5.20;;;20.80;99.90;;;;;;5019747;28;20481;-84
2023/05/20 10:01:47;;;;;;;9.57;5.23;;;20.40;99.90;;;;;;5019934;28;20577;-81
2023/05/20 10:04:17;;;;;;;7.97;5.20;;;20.30;99.90;;;;;;4998892;28;20442;-83
2023/05/20 10:07:05;;;;;;;7.03;5.17;;;20.20;99.90;;;;;;4999090;28;21022;-82
2023/05/20 10:09:45;;;;;;;8.13;5.37;;;20.20;99.90;;;;;;4999733;28;20450;-82
2023/05/20 10:12:27;;;;;;;6.30;4.37;;;20.30;99.90;;;;;;5001379;28;20473;-82
2023/05/20 10:15:04;;;;;;;7.30;4.30;;;20.30;99.90;;;;;;5018991;28;20453;-83
2023/05/20 10:17:39;;;;;;;8.17;4.60;;;20.50;99.90;;;;;;5018779;28;20481;-83
2023/05/20 10:20:10;;;;;;;7.13;5.10;;;20.40;99.90;;;;;;5019373;28;20460;-82
2023/05/20 10:22:38;;;;;;;5.60;4.37;;;20.50;99.90;;;;;;5017981;28;20481;-82
2023/05/20 10:25:07;;;;;;;6.97;4.40;;;20.50;99.90;;;;;;5011228;28;20919;-81
2023/05/20 10:27:45;;;;;;;7.80;4.80;;;20.80;99.90;;;;;;5009721;28;20449;-84
2023/05/20 10:30:18;;;;;;;5.43;4.30;;;20.90;99.90;;;;;;5009647;28;20453;-84
2023/05/20 10:32:55;;;;;;;7.00;4.87;;;21.00;99.90;;;;;;5010887;28;20454;-83
2023/05/20 10:35:25;;;;;;;6.77;4.90;;;21.00;99.90;;;;;;5009934;28;20437;-84
2023/05/20 10:37:52;;;;;;;8.20;5.40;;;21.10;99.90;;;;;;5006402;28;20549;-83
2023/05/20 10:40:20;;;;;;;6.33;4.80;;;21.00;99.90;;;;;;5008590;28;20447;-82
2023/05/20 10:42:49;;;;;;;8.57;4.57;;;21.00;99.90;;;;;;5013436;28;20519;-83
2023/05/20 10:45:26;;;;;;;6.90;4.93;;;21.20;99.90;;;;;;5008279;28;20529;-82
2023/05/20 10:47:57;;;;;;;6.23;4.60;;;21.00;99.90;;;;;;5013480;28;20448;-82
2023/05/20 10:50:28;;;;;;;5.47;4.67;;;21.10;99.90;;;;;;5026722;28;20899;-83
2023/05/20 10:53:03;;;;;;;8.20;5.80;;;21.10;99.90;;;;;;5022210;28;20441;-81
2023/05/20 10:55:36;;;;;;;6.70;5.37;;;21.10;99.90;;;;;;5011597;28;20489;-82
2023/05/20 10:58:04;;;;;;;5.97;5.00;;;21.00;99.90;;;;;;5009756;28;20963;-82
2023/05/20 11:00:34;;;;;;;6.97;5.00;;;21.30;99.90;;;;;;5007396;28;20486;-82
2023/05/20 11:03:01;;;;;;;7.23;5.20;;;21.60;99.90;;;;;;5011560;28;20460;-83
2023/05/20 11:05:30;;;;;;;6.50;5.00;;;21.80;99.90;;;;;;5009187;28;20967;-82
2023/05/20 11:08:01;;;;;;;5.90;4.80;;;22.00;99.90;;;;;;5009203;28;20458;-82
2023/05/20 11:10:28;;;;;;;6.70;5.40;;;22.20;99.90;;;;;;5008964;28;20473;-82
2023/05/20 11:12:56;;;;;;;5.87;4.40;;;22.40;99.90;;;;;;5010833;28;20819;-83
2023/05/20 11:15:24;;;;;;;7.93;4.20;;;22.80;99.90;;;;;;5011073;28;20690;-82
2023/05/20 11:17:55;;;;;;;5.43;4.83;;;22.90;99.90;;;;;;5010809;28;20569;-82
2023/05/20 11:20:23;;;;;;;5.80;4.80;;;23.30;99.90;;;;;;5011616;28;20453;-82
2023/05/20 11:22:50;;;;;;;7.60;4.97;;;23.50;99.90;;;;;;5011165;28;20474;-81
2023/05/20 11:25:17;;;;;;;8.10;4.80;;;23.60;99.90;;;;;;5010445;28;21013;-82
2023/05/20 11:27:44;;;;;;;5.90;5.00;;;24.20;99.90;;;;;;5010436;28;20582;-82
2023/05/20 11:30:15;;;;;;;5.57;4.67;;;24.70;99.90;;;;;;5010356;28;20533;-83
2023/05/20 11:32:43;;;;;;;5.73;4.60;;;25.00;99.90;;;;;;5010177;28;20477;-84
2023/05/20 11:35:22;;;;;;;6.07;4.00;;;25.30;99.90;;;;;;5012270;28;20445;-82
2023/05/20 11:37:56;;;;;;;6.63;4.50;;;25.50;99.90;;;;;;5015315;28;20512;-82
2023/05/20 11:40:25;;;;;;;7.33;4.80;;;25.30;99.90;;;;;;5011678;28;20515;-82
2023/05/20 11:42:54;;;;;;;6.67;4.10;;;25.00;99.90;;;;;;5003523;28;20951;-82
2023/05/20 11:45:21;;;;;;;7.83;4.83;;;25.00;99.90;;;;;;5002456;28;20455;-83
2023/05/20 11:47:58;;;;;;;5.10;4.17;;;24.90;99.90;;;;;;5008182;28;20463;-83
2023/05/20 11:50:25;;;;;;;3.93;3.30;;;25.30;99.90;;;;;;5021618;28;20456;-83
2023/05/20 11:52:57;;;;;;;4.70;3.83;;;25.80;99.90;;;;;;5021535;28;20453;-83
2023/05/20 11:55:24;;;;;;;7.03;3.97;;;27.10;99.90;;;;;;5022061;28;20466;-84
2023/05/20 11:57:51;;;;;;;5.13;3.43;;;28.20;99.90;;;;;;5023513;28;20481;-83
2023/05/20 12:00:18;;;;;;;4.83;3.47;;;28.70;99.90;;;;;;5022628;28;20454;-82
2023/05/20 12:02:45;;;;;;;5.07;3.23;;;29.10;99.90;;;;;;5022805;28;20517;-83
2023/05/20 12:05:13;;;;;;;4.63;3.57;;;29.70;99.90;;;;;;5022750;28;20453;-83
2023/05/20 12:07:40;;;;;;;5.50;3.47;;;29.20;99.90;;;;;;5022469;28;20461;-83
2023/05/20 12:10:08;;;;;;;4.60;3.13;;;28.70;99.90;;;;;;5022820;28;20517;-84
2023/05/20 12:12:36;;;;;;;5.70;3.53;;;28.60;99.90;;;;;;5022459;28;20564;-84
2023/05/20 12:15:03;;;;;;;5.57;3.33;;;28.40;99.90;;;;;;5022790;28;20837;-83
2023/05/20 12:17:29;;;;;;;4.60;3.40;;;28.00;99.90;;;;;;5019448;28;20904;-83
2023/05/20 12:19:56;;;;;;;5.33;3.60;;;27.70;99.90;;;;;;5019540;28;20495;-82
2023/05/20 12:22:24;;;;;;;5.17;3.40;;;27.30;99.90;;;;;;5019155;28;20508;-83
2023/05/20 12:24:51;;;;;;;4.50;3.20;;;27.00;99.90;;;;;;5021809;28;20450;-83
2023/05/20 12:27:18;;;;;;;5.00;3.40;;;27.00;99.90;;;;;;5020717;28;20454;-83
2023/05/20 12:29:45;;;;;;;6.23;3.93;;;26.60;99.90;;;;;;5021421;28;20507;-84
2023/05/20 12:32:11;;;;;;;6.70;3.63;;;25.90;99.90;;;;;;5018446;28;20827;-83
2023/05/20 12:34:38;;;;;;;5.40;3.30;;;25.60;99.90;;;;;;5017852;28;20472;-82
2023/05/20 12:37:06;;;;;;;4.23;2.80;;;25.50;99.90;;;;;;5018609;28;20441;-82
2023/05/20 12:39:34;;;;;;;3.97;3.13;;;25.50;99.90;;;;;;5019455;28;20489;-83
2023/05/20 12:42:00;;;;;;;4.60;3.00;;;25.20;99.90;;;;;;5018387;28;20474;-83
2023/05/20 12:44:27;;;;;;;6.60;4.17;;;25.20;99.90;;;;;;5018901;28;20549;-83
2023/05/20 12:46:55;;;;;;;7.53;3.30;;;25.00;99.90;;;;;;5021146;28;20526;-83
2023/05/20 12:49:21;;;;;;;5.10;3.60;;;24.70;99.90;;;;;;5020818;28;20454;-82
2023/05/20 12:51:48;;;;;;;4.17;3.03;;;24.40;99.90;;;;;;5019547;28;21016;-83
2023/05/20 12:54:16;;;;;;;4.80;2.70;;;24.30;99.90;;;;;;5019411;28;20494;-82